sim
Sign-in with your pilot id or email,
or register
Callsign
Passwort

Schedule Details

Flight Number: EWG652 (3)
Departure: Cologne Bonn Airport (EDDK) at 15:00
Arrival: Thessaloniki International Airport (LGTS) at 17:30
Route: Eurowings Passenger Schedule. Enter filed route here before submitting Pirep.

Weather Information
Getting current METAR information for EDDK 252120Z 21003KT 170V230 CAVOK 13/07 Q1009 NOSIG
Getting current METAR information for LGTS 252120Z 00000KT CAVOK 15/12 Q1020 NOSIG

Schedule Frequency

Route Map